sensor_id;sensor_type;location;lat;lon;timestamp;pressure;altitude;pressure_sealevel;temperature;humidity
25232;BME280;13176;51.140;6.290;2023-07-20T00:02:02;100626.44;;;21.46;64.27
25232;BME280;13176;51.140;6.290;2023-07-20T00:04:29;100700.00;;;21.88;63.81
25232;BME280;13176;51.140;6.290;2023-07-20T00:06:57;100683.09;;;21.76;63.86
25232;BME280;13176;51.140;6.290;2023-07-20T00:09:23;100695.25;;;21.80;64.56
25232;BME280;13176;51.140;6.290;2023-07-20T00:11:51;100675.13;;;21.76;63.77
25232;BME280;13176;51.140;6.290;2023-07-20T00:14:18;100690.13;;;21.90;64.01
25232;BME280;13176;51.140;6.290;2023-07-20T00:16:45;100666.38;;;21.74;64.51
25232;BME280;13176;51.140;6.290;2023-07-20T00:19:26;100609.56;;;21.47;64.24
25232;BME280;13176;51.140;6.290;2023-07-20T00:21:54;100696.22;;;21.92;64.30
25232;BME280;13176;51.140;6.290;2023-07-20T00:24:21;100701.88;;;21.87;64.59
25232;BME280;13176;51.140;6.290;2023-07-20T00:26:48;100719.34;;;21.77;66.43
25232;BME280;13176;51.140;6.290;2023-07-20T00:29:15;100715.25;;;21.11;69.90
25232;BME280;13176;51.140;6.290;2023-07-20T00:31:41;100721.03;;;20.71;76.19
25232;BME280;13176;51.140;6.290;2023-07-20T00:34:09;100708.47;;;20.42;80.07
25232;BME280;13176;51.140;6.290;2023-07-20T00:36:36;100728.91;;;20.40;81.47
25232;BME280;13176;51.140;6.290;2023-07-20T00:39:02;100711.66;;;20.16;85.11
25232;BME280;13176;51.140;6.290;2023-07-20T00:41:29;100699.38;;;19.98;88.62
25232;BME280;13176;51.140;6.290;2023-07-20T00:43:56;100693.41;;;19.93;90.91
25232;BME280;13176;51.140;6.290;2023-07-20T00:46:23;100705.47;;;20.00;90.93
25232;BME280;13176;51.140;6.290;2023-07-20T00:48:52;100701.53;;;20.07;91.17
25232;BME280;13176;51.140;6.290;2023-07-20T00:51:21;100710.41;;;20.06;91.72
25232;BME280;13176;51.140;6.290;2023-07-20T00:53:47;100666.00;;;19.77;90.85
25232;BME280;13176;51.140;6.290;2023-07-20T00:56:15;100697.63;;;19.97;93.51
25232;BME280;13176;51.140;6.290;2023-07-20T00:58:42;100683.75;;;19.92;95.31
25232;BME280;13176;51.140;6.290;2023-07-20T01:01:08;100688.59;;;19.84;95.81
25232;BME280;13176;51.140;6.290;2023-07-20T01:03:35;100675.81;;;19.92;98.10
25232;BME280;13176;51.140;6.290;2023-07-20T01:11:50;100712.44;;;20.51;92.97
25232;BME280;13176;51.140;6.290;2023-07-20T01:14:18;100714.81;;;20.55;96.12
25232;BME280;13176;51.140;6.290;2023-07-20T01:16:44;100700.94;;;20.50;94.94
25232;BME280;13176;51.140;6.290;2023-07-20T01:19:13;100691.38;;;20.48;92.49
25232;BME280;13176;51.140;6.290;2023-07-20T01:21:48;100668.03;;;20.22;93.10
25232;BME280;13176;51.140;6.290;2023-07-20T01:27:05;100673.28;;;20.23;91.05
25232;BME280;13176;51.140;6.290;2023-07-20T01:32:28;100702.78;;;20.33;93.56
25232;BME280;13176;51.140;6.290;2023-07-20T01:34:56;100648.38;;;20.10;92.03
25232;BME280;13176;51.140;6.290;2023-07-20T01:37:25;100694.94;;;20.31;92.55
25232;BME280;13176;51.140;6.290;2023-07-20T01:39:55;100704.72;;;20.46;92.79
25232;BME280;13176;51.140;6.290;2023-07-20T01:42:22;100700.84;;;20.36;90.55
25232;BME280;13176;51.140;6.290;2023-07-20T01:44:51;100655.53;;;20.08;91.13
25232;BME280;13176;51.140;6.290;2023-07-20T01:47:19;100700.56;;;20.25;92.70
25232;BME280;13176;51.140;6.290;2023-07-20T01:49:45;100703.34;;;20.39;90.63
25232;BME280;13176;51.140;6.290;2023-07-20T01:52:12;100695.47;;;20.38;91.92
25232;BME280;13176;51.140;6.290;2023-07-20T01:54:39;100610.69;;;19.88;90.41
25232;BME280;13176;51.140;6.290;2023-07-20T01:57:05;100692.34;;;20.30;89.53
25232;BME280;13176;51.140;6.290;2023-07-20T01:59:31;100696.81;;;20.29;89.41
25232;BME280;13176;51.140;6.290;2023-07-20T02:01:58;100689.81;;;20.11;88.97
25232;BME280;13176;51.140;6.290;2023-07-20T02:04:24;100696.38;;;20.04;91.38
25232;BME280;13176;51.140;6.290;2023-07-20T02:06:51;100687.84;;;19.99;90.07
25232;BME280;13176;51.140;6.290;2023-07-20T02:09:17;100690.06;;;20.07;89.82
25232;BME280;13176;51.140;6.290;2023-07-20T02:11:44;100670.97;;;19.83;89.78
25232;BME280;13176;51.140;6.290;2023-07-20T02:14:10;100688.44;;;19.87;90.36
25232;BME280;13176;51.140;6.290;2023-07-20T02:16:36;100668.03;;;19.72;91.76
25232;BME280;13176;51.140;6.290;2023-07-20T02:19:03;100679.41;;;19.74;90.84
25232;BME280;13176;51.140;6.290;2023-07-20T02:21:30;100691.06;;;19.70;91.54
25232;BME280;13176;51.140;6.290;2023-07-20T02:23:56;100655.28;;;19.47;91.31
25232;BME280;13176;51.140;6.290;2023-07-20T02:26:23;100597.16;;;19.10;90.92
25232;BME280;13176;51.140;6.290;2023-07-20T02:28:50;100700.09;;;19.66;91.44
25232;BME280;13176;51.140;6.290;2023-07-20T02:31:17;100691.56;;;19.61;92.61
25232;BME280;13176;51.140;6.290;2023-07-20T02:33:43;100688.53;;;19.69;90.36
25232;BME280;13176;51.140;6.290;2023-07-20T02:36:10;100655.41;;;19.44;89.72
25232;BME280;13176;51.140;6.290;2023-07-20T02:38:36;100669.44;;;19.46;90.37
25232;BME280;13176;51.140;6.290;2023-07-20T02:41:02;100666.94;;;19.43;90.97
25232;BME280;13176;51.140;6.290;2023-07-20T02:43:29;100685.00;;;19.52;90.84
25232;BME280;13176;51.140;6.290;2023-07-20T02:45:55;100685.00;;;19.52;91.58
25232;BME280;13176;51.140;6.290;2023-07-20T02:48:22;100690.16;;;19.54;90.49
25232;BME280;13176;51.140;6.290;2023-07-20T02:50:48;100695.47;;;19.54;91.10
25232;BME280;13176;51.140;6.290;2023-07-20T02:53:15;100662.03;;;19.35;91.02
25232;BME280;13176;51.140;6.290;2023-07-20T02:55:41;100700.75;;;19.54;91.10
25232;BME280;13176;51.140;6.290;2023-07-20T02:58:08;100673.00;;;19.45;91.43
25232;BME280;13176;51.140;6.290;2023-07-20T03:00:34;100692.03;;;19.52;91.20
25232;BME280;13176;51.140;6.290;2023-07-20T03:03:00;100698.88;;;19.56;91.32
25232;BME280;13176;51.140;6.290;2023-07-20T03:05:27;100705.59;;;19.63;91.37
25232;BME280;13176;51.140;6.290;2023-07-20T03:07:55;100686.19;;;19.46;91.85
25232;BME280;13176;51.140;6.290;2023-07-20T03:10:21;100698.16;;;19.53;91.10
25232;BME280;13176;51.140;6.290;2023-07-20T03:12:48;100711.19;;;19.57;91.66
25232;BME280;13176;51.140;6.290;2023-07-20T03:15:14;100692.19;;;19.50;91.61
25232;BME280;13176;51.140;6.290;2023-07-20T03:17:41;100721.13;;;19.69;91.10
25232;BME280;13176;51.140;6.290;2023-07-20T03:20:09;100681.19;;;19.40;91.35
25232;BME280;13176;51.140;6.290;2023-07-20T03:22:36;100718.34;;;19.55;91.51
25232;BME280;13176;51.140;6.290;2023-07-20T03:25:03;100711.34;;;19.54;90.96
25232;BME280;13176;51.140;6.290;2023-07-20T03:27:30;100717.63;;;19.52;91.47
25232;BME280;13176;51.140;6.290;2023-07-20T03:29:57;100731.25;;;19.45;91.02
25232;BME280;13176;51.140;6.290;2023-07-20T03:32:23;100720.81;;;19.42;91.51
25232;BME280;13176;51.140;6.290;2023-07-20T03:34:50;100669.44;;;19.10;91.41
25232;BME280;13176;51.140;6.290;2023-07-20T03:37:16;100705.09;;;19.39;91.54
25232;BME280;13176;51.140;6.290;2023-07-20T03:39:43;100729.16;;;19.51;91.55
25232;BME280;13176;51.140;6.290;2023-07-20T03:42:09;100725.19;;;19.43;91.89
25232;BME280;13176;51.140;6.290;2023-07-20T03:44:35;100704.25;;;19.38;91.91
25232;BME280;13176;51.140;6.290;2023-07-20T03:47:03;100705.38;;;19.33;91.71
25232;BME280;13176;51.140;6.290;2023-07-20T03:49:31;100732.81;;;19.49;91.35
25232;BME280;13176;51.140;6.290;2023-07-20T03:51:57;100713.22;;;19.52;91.09
25232;BME280;13176;51.140;6.290;2023-07-20T03:54:24;100735.66;;;19.62;91.21
25232;BME280;13176;51.140;6.290;2023-07-20T03:56:50;100737.03;;;19.52;90.63
25232;BME280;13176;51.140;6.290;2023-07-20T03:59:17;100684.97;;;19.18;90.88
25232;BME280;13176;51.140;6.290;2023-07-20T04:01:43;100730.88;;;19.52;90.96
25232;BME280;13176;51.140;6.290;2023-07-20T04:04:10;100658.72;;;18.95;90.81
25232;BME280;13176;51.140;6.290;2023-07-20T04:06:36;100636.50;;;18.99;91.36
25232;BME280;13176;51.140;6.290;2023-07-20T04:09:03;100741.16;;;19.58;90.99
25232;BME280;13176;51.140;6.290;2023-07-20T04:11:31;100729.63;;;19.59;91.40
25232;BME280;13176;51.140;6.290;2023-07-20T04:13:57;100671.75;;;19.18;91.31
25232;BME280;13176;51.140;6.290;2023-07-20T04:16:24;100745.06;;;19.68;91.29
25232;BME280;13176;51.140;6.290;2023-07-20T04:18:51;100749.50;;;19.67;90.72
25232;BME280;13176;51.140;6.290;2023-07-20T04:21:17;100746.31;;;19.78;91.03
25232;BME280;13176;51.140;6.290;2023-07-20T04:23:44;100718.09;;;19.60;91.15
25232;BME280;13176;51.140;6.290;2023-07-20T04:26:11;100740.84;;;19.64;91.09
25232;BME280;13176;51.140;6.290;2023-07-20T04:28:38;100730.03;;;19.68;91.10
25232;BME280;13176;51.140;6.290;2023-07-20T04:31:13;100762.22;;;19.78;91.04
25232;BME280;13176;51.140;6.290;2023-07-20T04:33:40;100766.00;;;19.72;90.52
25232;BME280;13176;51.140;6.290;2023-07-20T04:36:07;100731.78;;;19.51;90.95
25232;BME280;13176;51.140;6.290;2023-07-20T04:38:36;100749.03;;;19.59;91.28
25232;BME280;13176;51.140;6.290;2023-07-20T04:41:02;100567.97;;;18.59;90.71
25232;BME280;13176;51.140;6.290;2023-07-20T04:43:29;100766.34;;;19.83;91.47
25232;BME280;13176;51.140;6.290;2023-07-20T04:45:55;100736.56;;;19.45;90.47
25232;BME280;13176;51.140;6.290;2023-07-20T04:48:22;100753.69;;;19.71;91.47
25232;BME280;13176;51.140;6.290;2023-07-20T04:50:48;100762.75;;;19.84;91.54
25232;BME280;13176;51.140;6.290;2023-07-20T04:53:15;100756.78;;;19.81;91.24
25232;BME280;13176;51.140;6.290;2023-07-20T04:55:48;100731.88;;;19.66;91.37
25232;BME280;13176;51.140;6.290;2023-07-20T04:58:19;100753.97;;;19.84;91.45
25232;BME280;13176;51.140;6.290;2023-07-20T05:00:47;100743.75;;;19.76;91.03
25232;BME280;13176;51.140;6.290;2023-07-20T05:03:14;100740.31;;;19.74;91.37
25232;BME280;13176;51.140;6.290;2023-07-20T05:05:40;100731.72;;;19.69;90.81
25232;BME280;13176;51.140;6.290;2023-07-20T05:08:07;100779.63;;;20.00;91.28
25232;BME280;13176;51.140;6.290;2023-07-20T05:10:34;100757.78;;;19.95;91.96
25232;BME280;13176;51.140;6.290;2023-07-20T05:13:02;100746.72;;;19.87;91.34
25232;BME280;13176;51.140;6.290;2023-07-20T05:15:40;100651.66;;;19.14;91.18
25232;BME280;13176;51.140;6.290;2023-07-20T05:18:07;100686.19;;;19.46;91.68
25232;BME280;13176;51.140;6.290;2023-07-20T05:20:34;100771.59;;;20.02;92.11
25232;BME280;13176;51.140;6.290;2023-07-20T05:23:01;100768.75;;;19.88;91.67
25232;BME280;13176;51.140;6.290;2023-07-20T05:25:27;100763.75;;;20.00;91.49
25232;BME280;13176;51.140;6.290;2023-07-20T05:27:57;100779.31;;;20.06;91.23
25232;BME280;13176;51.140;6.290;2023-07-20T05:30:23;100720.53;;;19.81;91.88
25232;BME280;13176;51.140;6.290;2023-07-20T05:32:52;100743.13;;;19.88;91.00
25232;BME280;13176;51.140;6.290;2023-07-20T05:35:21;100734.09;;;19.92;90.88
25232;BME280;13176;51.140;6.290;2023-07-20T05:37:50;100772.28;;;20.05;90.67
25232;BME280;13176;51.140;6.290;2023-07-20T05:40:16;100789.28;;;20.18;92.07
25232;BME280;13176;51.140;6.290;2023-07-20T05:42:45;100761.22;;;20.14;91.45
25232;BME280;13176;51.140;6.290;2023-07-20T05:45:12;100581.44;;;19.07;91.14
25232;BME280;13176;51.140;6.290;2023-07-20T05:47:39;100760.28;;;20.15;91.34
25232;BME280;13176;51.140;6.290;2023-07-20T05:50:06;100592.06;;;19.24;91.30
25232;BME280;13176;51.140;6.290;2023-07-20T05:52:35;100761.59;;;20.24;90.70
25232;BME280;13176;51.140;6.290;2023-07-20T05:55:01;100782.34;;;20.33;90.89
25232;BME280;13176;51.140;6.290;2023-07-20T05:57:28;100603.66;;;19.38;90.71
25232;BME280;13176;51.140;6.290;2023-07-20T05:59:54;100792.38;;;20.43;91.48
25232;BME280;13176;51.140;6.290;2023-07-20T06:02:21;100637.22;;;19.54;90.10
25232;BME280;13176;51.140;6.290;2023-07-20T06:04:52;100775.53;;;20.44;91.45
25232;BME280;13176;51.140;6.290;2023-07-20T06:07:24;100594.84;;;19.38;90.97
25232;BME280;13176;51.140;6.290;2023-07-20T06:09:50;100723.28;;;20.14;91.47
25232;BME280;13176;51.140;6.290;2023-07-20T06:12:18;100636.91;;;19.60;90.52
25232;BME280;13176;51.140;6.290;2023-07-20T06:14:44;100625.66;;;19.39;89.99
25232;BME280;13176;51.140;6.290;2023-07-20T06:17:11;100639.69;;;19.41;89.71
25232;BME280;13176;51.140;6.290;2023-07-20T06:19:38;100674.88;;;19.76;90.55
25232;BME280;13176;51.140;6.290;2023-07-20T06:22:06;100804.38;;;20.50;90.65
25232;BME280;13176;51.140;6.290;2023-07-20T06:24:33;100636.03;;;19.60;90.51
25232;BME280;13176;51.140;6.290;2023-07-20T06:26:59;100688.44;;;19.87;90.65
25232;BME280;13176;51.140;6.290;2023-07-20T06:29:26;100622.56;;;19.64;89.60
25232;BME280;13176;51.140;6.290;2023-07-20T06:31:57;100598.81;;;19.63;86.79
25232;BME280;13176;51.140;6.290;2023-07-20T06:34:24;100738.19;;;20.49;89.70
25232;BME280;13176;51.140;6.290;2023-07-20T06:36:54;100616.94;;;19.70;88.05
25232;BME280;13176;51.140;6.290;2023-07-20T06:39:24;100701.03;;;20.16;87.78
25232;BME280;13176;51.140;6.290;2023-07-20T06:41:55;100649.19;;;19.61;85.71
25232;BME280;13176;51.140;6.290;2023-07-20T06:44:22;100690.00;;;19.91;86.77
25232;BME280;13176;51.140;6.290;2023-07-20T06:46:49;100715.97;;;20.02;86.45
25232;BME280;13176;51.140;6.290;2023-07-20T06:49:26;100747.03;;;20.15;86.67
25232;BME280;13176;51.140;6.290;2023-07-20T06:51:57;100670.53;;;19.58;85.60
25232;BME280;13176;51.140;6.290;2023-07-20T06:54:43;100790.84;;;20.22;86.83
25232;BME280;13176;51.140;6.290;2023-07-20T06:57:29;100680.97;;;19.61;86.52
25232;BME280;13176;51.140;6.290;2023-07-20T06:59:55;100590.59;;;19.00;85.44
25232;BME280;13176;51.140;6.290;2023-07-20T07:02:22;100696.22;;;19.73;85.32
25232;BME280;13176;51.140;6.290;2023-07-20T07:04:49;100748.28;;;20.08;84.36
25232;BME280;13176;51.140;6.290;2023-07-20T07:07:26;100700.91;;;19.85;82.52
25232;BME280;13176;51.140;6.290;2023-07-20T07:09:53;100750.47;;;20.17;82.66
25232;BME280;13176;51.140;6.290;2023-07-20T07:12:20;100663.34;;;19.77;81.97
25232;BME280;13176;51.140;6.290;2023-07-20T07:14:46;100814.44;;;20.76;81.85
25232;BME280;13176;51.140;6.290;2023-07-20T07:17:13;100751.81;;;20.41;81.45
25232;BME280;13176;51.140;6.290;2023-07-20T07:19:45;100828.38;;;20.81;80.14
25232;BME280;13176;51.140;6.290;2023-07-20T07:22:15;100749.84;;;20.29;79.81
25232;BME280;13176;51.140;6.290;2023-07-20T07:24:42;100710.00;;;19.97;78.81
25232;BME280;13176;51.140;6.290;2023-07-20T07:27:08;100741.88;;;20.12;78.85
25232;BME280;13176;51.140;6.290;2023-07-20T07:29:38;100826.97;;;20.74;79.49
25232;BME280;13176;51.140;6.290;2023-07-20T07:32:05;100724.91;;;20.16;78.76
25232;BME280;13176;51.140;6.290;2023-07-20T07:34:32;100773.78;;;20.60;77.87
25232;BME280;13176;51.140;6.290;2023-07-20T07:37:01;100775.25;;;20.66;77.74
25232;BME280;13176;51.140;6.290;2023-07-20T07:39:27;100830.75;;;21.18;77.73
25232;BME280;13176;51.140;6.290;2023-07-20T07:41:59;100840.69;;;21.30;77.33
25232;BME280;13176;51.140;6.290;2023-07-20T07:44:25;100771.53;;;20.85;76.14
25232;BME280;13176;51.140;6.290;2023-07-20T07:46:52;100832.47;;;21.19;75.69
25232;BME280;13176;51.140;6.290;2023-07-20T07:49:19;100842.13;;;21.20;75.45
25232;BME280;13176;51.140;6.290;2023-07-20T07:51:46;100697.66;;;20.30;74.65
25232;BME280;13176;51.140;6.290;2023-07-20T07:54:16;100699.69;;;20.25;74.34
25232;BME280;13176;51.140;6.290;2023-07-20T07:56:43;100781.25;;;20.69;74.59
25232;BME280;13176;51.140;6.290;2023-07-20T07:59:10;100838.88;;;21.15;74.83
25232;BME280;13176;51.140;6.290;2023-07-20T08:01:37;100737.09;;;20.68;75.60
25232;BME280;13176;51.140;6.290;2023-07-20T08:04:04;100832.56;;;21.33;75.25
25232;BME280;13176;51.140;6.290;2023-07-20T08:06:31;100834.13;;;21.68;73.94
25232;BME280;13176;51.140;6.290;2023-07-20T08:08:57;100755.91;;;21.27;72.95
25232;BME280;13176;51.140;6.290;2023-07-20T08:11:24;100858.91;;;21.84;71.84
25232;BME280;13176;51.140;6.290;2023-07-20T08:13:51;100863.97;;;21.73;69.49
25232;BME280;13176;51.140;6.290;2023-07-20T08:16:20;100784.16;;;21.28;67.26
25232;BME280;13176;51.140;6.290;2023-07-20T08:18:47;100706.69;;;20.90;66.70
25232;BME280;13176;51.140;6.290;2023-07-20T08:21:14;100820.56;;;21.57;65.92
25232;BME280;13176;51.140;6.290;2023-07-20T08:23:45;100737.66;;;21.21;65.30
25232;BME280;13176;51.140;6.290;2023-07-20T08:26:14;100776.88;;;21.47;62.88
25232;BME280;13176;51.140;6.290;2023-07-20T08:28:43;100844.88;;;21.95;61.94
25232;BME280;13176;51.140;6.290;2023-07-20T08:31:10;100833.47;;;21.93;60.75
25232;BME280;13176;51.140;6.290;2023-07-20T08:33:37;100867.19;;;22.22;61.72
25232;BME280;13176;51.140;6.290;2023-07-20T08:36:04;100830.72;;;22.24;62.00
25232;BME280;13176;51.140;6.290;2023-07-20T08:38:32;100861.28;;;22.33;60.27
25232;BME280;13176;51.140;6.290;2023-07-20T08:40:59;100797.69;;;22.14;60.83
25232;BME280;13176;51.140;6.290;2023-07-20T08:43:31;100670.72;;;21.45;60.55
25232;BME280;13176;51.140;6.290;2023-07-20T08:46:00;100824.72;;;22.36;60.30
25232;BME280;13176;51.140;6.290;2023-07-20T08:48:28;100717.47;;;21.92;60.67
25232;BME280;13176;51.140;6.290;2023-07-20T08:50:57;100701.75;;;22.03;60.88
25232;BME280;13176;51.140;6.290;2023-07-20T08:53:24;100739.81;;;22.47;60.83
25232;BME280;13176;51.140;6.290;2023-07-20T08:55:51;100755.19;;;22.70;59.91
25232;BME280;13176;51.140;6.290;2023-07-20T08:58:23;100768.25;;;22.75;59.72
25232;BME280;13176;51.140;6.290;2023-07-20T09:00:53;100813.00;;;22.82;58.92
25232;BME280;13176;51.140;6.290;2023-07-20T09:03:26;100759.00;;;22.38;59.78
25232;BME280;13176;51.140;6.290;2023-07-20T09:05:56;100842.94;;;22.86;59.64
25232;BME280;13176;51.140;6.290;2023-07-20T09:08:22;100852.19;;;23.08;58.81
25232;BME280;13176;51.140;6.290;2023-07-20T09:10:49;100848.94;;;23.31;57.66
25232;BME280;13176;51.140;6.290;2023-07-20T09:13:16;100835.97;;;23.39;57.83
25232;BME280;13176;51.140;6.290;2023-07-20T09:15:48;100743.75;;;22.96;58.95
25232;BME280;13176;51.140;6.290;2023-07-20T09:18:29;100800.91;;;23.18;56.15
25232;BME280;13176;51.140;6.290;2023-07-20T09:21:02;100767.19;;;22.91;55.70
25232;BME280;13176;51.140;6.290;2023-07-20T09:23:36;100654.31;;;22.39;55.12
25232;BME280;13176;51.140;6.290;2023-07-20T09:26:13;100727.81;;;22.82;54.23
25232;BME280;13176;51.140;6.290;2023-07-20T09:28:54;100666.63;;;22.68;55.87
25232;BME280;13176;51.140;6.290;2023-07-20T09:31:22;100796.25;;;23.22;55.17
25232;BME280;13176;51.140;6.290;2023-07-20T09:33:52;100766.47;;;23.29;55.64
25232;BME280;13176;51.140;6.290;2023-07-20T09:36:23;100763.47;;;23.34;54.49
25232;BME280;13176;51.140;6.290;2023-07-20T09:39:09;100713.63;;;23.10;53.71
25232;BME280;13176;51.140;6.290;2023-07-20T09:41:40;100730.91;;;23.43;53.72
25232;BME280;13176;51.140;6.290;2023-07-20T09:44:16;100740.78;;;23.55;53.62
25232;BME280;13176;51.140;6.290;2023-07-20T09:46:50;100850.91;;;24.34;52.36
25232;BME280;13176;51.140;6.290;2023-07-20T09:49:20;100665.94;;;23.45;51.16
25232;BME280;13176;51.140;6.290;2023-07-20T09:51:53;100715.72;;;23.84;50.86
25232;BME280;13176;51.140;6.290;2023-07-20T09:54:22;100859.31;;;24.67;47.99
25232;BME280;13176;51.140;6.290;2023-07-20T09:56:51;100777.44;;;24.41;47.53
25232;BME280;13176;51.140;6.290;2023-07-20T09:59:22;100763.38;;;24.39;49.73
25232;BME280;13176;51.140;6.290;2023-07-20T10:01:51;100804.63;;;24.60;49.59
25232;BME280;13176;51.140;6.290;2023-07-20T10:04:20;100699.09;;;23.93;50.73
25232;BME280;13176;51.140;6.290;2023-07-20T10:06:49;100721.94;;;23.84;51.89
25232;BME280;13176;51.140;6.290;2023-07-20T10:09:19;100645.94;;;23.65;53.32
25232;BME280;13176;51.140;6.290;2023-07-20T10:11:53;100673.72;;;24.00;53.84
25232;BME280;13176;51.140;6.290;2023-07-20T10:14:41;100824.03;;;25.00;52.58
25232;BME280;13176;51.140;6.290;2023-07-20T10:17:13;100815.03;;;25.13;51.40
25232;BME280;13176;51.140;6.290;2023-07-20T10:19:50;100712.69;;;24.64;51.73
25232;BME280;13176;51.140;6.290;2023-07-20T10:22:26;100654.91;;;24.63;51.97
25232;BME280;13176;51.140;6.290;2023-07-20T10:24:54;100825.06;;;25.83;50.81
25232;BME280;13176;51.140;6.290;2023-07-20T10:27:26;100681.81;;;24.60;47.73
25232;BME280;13176;51.140;6.290;2023-07-20T10:29:52;100738.72;;;24.73;50.21
25232;BME280;13176;51.140;6.290;2023-07-20T10:32:22;100824.94;;;24.75;48.51
25232;BME280;13176;51.140;6.290;2023-07-20T10:34:52;100760.59;;;24.28;49.55
25232;BME280;13176;51.140;6.290;2023-07-20T10:37:47;100832.28;;;24.84;49.62
25232;BME280;13176;51.140;6.290;2023-07-20T10:40:38;100816.78;;;24.89;50.02
25232;BME280;13176;51.140;6.290;2023-07-20T10:43:06;100820.19;;;25.16;49.74
25232;BME280;13176;51.140;6.290;2023-07-20T10:45:49;100807.00;;;25.38;50.30
25232;BME280;13176;51.140;6.290;2023-07-20T10:48:22;100804.81;;;25.79;47.62
25232;BME280;13176;51.140;6.290;2023-07-20T10:51:12;100804.78;;;25.91;47.32
25232;BME280;13176;51.140;6.290;2023-07-20T10:53:42;100662.31;;;25.19;45.80
25232;BME280;13176;51.140;6.290;2023-07-20T10:56:14;100695.34;;;25.65;45.76
25232;BME280;13176;51.140;6.290;2023-07-20T10:58:45;100738.19;;;25.76;43.52
25232;BME280;13176;51.140;6.290;2023-07-20T11:01:17;100785.56;;;25.74;45.13
25232;BME280;13176;51.140;6.290;2023-07-20T11:03:48;100793.09;;;25.69;46.50
25232;BME280;13176;51.140;6.290;2023-07-20T11:11:27;100710.00;;;24.64;44.04
25232;BME280;13176;51.140;6.290;2023-07-20T11:13:59;100786.19;;;25.18;46.96
25232;BME280;13176;51.140;6.290;2023-07-20T11:19:03;100781.75;;;27.88;40.06
25232;BME280;13176;51.140;6.290;2023-07-20T11:21:38;100602.78;;;26.73;40.26
25232;BME280;13176;51.140;6.290;2023-07-20T11:24:26;100604.00;;;25.93;41.52
25232;BME280;13176;51.140;6.290;2023-07-20T11:26:57;100786.41;;;26.77;44.92
25232;BME280;13176;51.140;6.290;2023-07-20T11:29:24;100766.06;;;26.75;43.09
25232;BME280;13176;51.140;6.290;2023-07-20T11:31:59;100711.88;;;26.50;41.69
25232;BME280;13176;51.140;6.290;2023-07-20T11:34:32;100722.72;;;26.59;42.45
25232;BME280;13176;51.140;6.290;2023-07-20T11:36:59;100786.16;;;26.69;41.33
25232;BME280;13176;51.140;6.290;2023-07-20T11:39:29;100603.81;;;25.61;42.54
25232;BME280;13176;51.140;6.290;2023-07-20T11:41:57;100776.66;;;26.55;41.97
25232;BME280;13176;51.140;6.290;2023-07-20T11:44:30;100641.69;;;25.90;42.01
25232;BME280;13176;51.140;6.290;2023-07-20T11:47:04;100765.47;;;26.93;42.64
25232;BME280;13176;51.140;6.290;2023-07-20T11:49:38;100778.34;;;26.99;40.49
25232;BME280;13176;51.140;6.290;2023-07-20T11:52:13;100622.50;;;25.27;39.12
25232;BME280;13176;51.140;6.290;2023-07-20T11:54:42;100672.22;;;25.64;40.00
25232;BME280;13176;51.140;6.290;2023-07-20T11:57:19;100730.06;;;26.12;38.63
25232;BME280;13176;51.140;6.290;2023-07-20T11:59:56;100732.19;;;26.52;40.86
25232;BME280;13176;51.140;6.290;2023-07-20T12:02:28;100692.16;;;26.72;39.23
25232;BME280;13176;51.140;6.290;2023-07-20T12:04:55;100666.72;;;26.45;38.55
25232;BME280;13176;51.140;6.290;2023-07-20T12:07:22;100745.25;;;26.57;38.40
25232;BME280;13176;51.140;6.290;2023-07-20T12:10:09;100686.19;;;25.91;40.02
25232;BME280;13176;51.140;6.290;2023-07-20T12:12:39;100641.34;;;25.94;41.98
25232;BME280;13176;51.140;6.290;2023-07-20T12:15:27;100638.31;;;26.32;41.29
25232;BME280;13176;51.140;6.290;2023-07-20T12:18:00;100637.59;;;26.63;40.11
25232;BME280;13176;51.140;6.290;2023-07-20T12:23:04;100662.78;;;26.93;40.17
25232;BME280;13176;51.140;6.290;2023-07-20T12:25:44;100669.00;;;26.71;37.18
25232;BME280;13176;51.140;6.290;2023-07-20T12:28:14;100653.91;;;26.38;36.94
25232;BME280;13176;51.140;6.290;2023-07-20T12:30:42;100633.19;;;25.85;36.77
25232;BME280;13176;51.140;6.290;2023-07-20T12:33:08;100633.22;;;26.18;37.54
25232;BME280;13176;51.140;6.290;2023-07-20T12:35:35;100757.91;;;26.55;35.21
25232;BME280;13176;51.140;6.290;2023-07-20T12:38:02;100681.28;;;26.41;36.58
25232;BME280;13176;51.140;6.290;2023-07-20T12:40:31;100697.47;;;26.29;34.90
25232;BME280;13176;51.140;6.290;2023-07-20T12:42:58;100746.94;;;26.79;34.99
25232;BME280;13176;51.140;6.290;2023-07-20T12:45:24;100735.50;;;27.10;35.61
25232;BME280;13176;51.140;6.290;2023-07-20T12:47:51;100559.50;;;26.47;36.54
25232;BME280;13176;51.140;6.290;2023-07-20T12:50:18;100739.78;;;28.07;35.04
25232;BME280;13176;51.140;6.290;2023-07-20T12:52:46;100726.50;;;27.85;35.32
25232;BME280;13176;51.140;6.290;2023-07-20T12:55:13;100648.22;;;27.28;35.25
25232;BME280;13176;51.140;6.290;2023-07-20T12:57:40;100660.19;;;27.76;36.50
25232;BME280;13176;51.140;6.290;2023-07-20T13:00:10;100732.13;;;28.34;35.80
25232;BME280;13176;51.140;6.290;2023-07-20T13:02:37;100626.31;;;27.44;35.71
25232;BME280;13176;51.140;6.290;2023-07-20T13:05:04;100718.63;;;27.73;35.19
25232;BME280;13176;51.140;6.290;2023-07-20T13:07:37;100727.63;;;27.40;34.47
25232;BME280;13176;51.140;6.290;2023-07-20T13:10:10;100719.88;;;27.04;36.87
25232;BME280;13176;51.140;6.290;2023-07-20T13:12:38;100687.66;;;26.73;35.89
25232;BME280;13176;51.140;6.290;2023-07-20T13:15:09;100701.66;;;26.87;35.42
25232;BME280;13176;51.140;6.290;2023-07-20T13:17:36;100722.84;;;26.90;35.57
25232;BME280;13176;51.140;6.290;2023-07-20T13:20:05;100738.66;;;26.71;36.27
25232;BME280;13176;51.140;6.290;2023-07-20T13:22:33;100723.06;;;26.76;37.25